Time;durP1;ratioP1;P1;durP2;ratioP2;P2;SDS_P1;SDS_P2;PMS_P1;PMS_P2;Temp;Humidity;BMP_temperature;BMP_pressure;BME280_temperature;BME280_humidity;BME280_pressure;Samples;Min_cycle;Max_cycle;Signal;HPM_P1;HPM_P2
2021/07/02 00:01:07;;;;;;;4.22;2.25;;;;;;;28.16;33.47;96735.34;4934838;28;20318;-36
2021/07/02 00:03:32;;;;;;;5.93;2.10;;;;;;;28.15;33.43;96734.50;4966934;28;20723;-36
2021/07/02 00:05:58;;;;;;;4.28;2.00;;;;;;;28.15;33.39;96729.22;4931926;28;20554;-34
2021/07/02 00:08:26;;;;;;;8.35;2.30;;;;;;;28.15;33.41;96734.50;4935901;28;20101;-31
2021/07/02 00:10:52;;;;;;;2.90;2.03;;;;;;;28.16;33.46;96730.09;4930605;28;20879;-35
2021/07/02 00:13:18;;;;;;;3.65;1.88;;;;;;;28.16;33.41;96724.81;4937403;28;20073;-31
2021/07/02 00:15:43;;;;;;;2.38;2.17;;;;;;;28.14;33.22;96730.19;4936866;28;20143;-31
2021/07/02 00:18:09;;;;;;;4.38;2.33;;;;;;;28.15;33.39;96729.22;4934289;28;20033;-34
2021/07/02 00:20:34;;;;;;;3.63;2.10;;;;;;;28.14;33.54;96722.28;4935811;28;20019;-33
2021/07/02 00:23:00;;;;;;;3.00;2.25;;;;;;;28.14;33.53;96717.00;4949772;28;20034;-34
2021/07/02 00:25:26;;;;;;;3.22;2.15;;;;;;;28.14;33.53;96722.28;4936256;28;20030;-33
2021/07/02 00:27:51;;;;;;;6.68;2.08;;;;;;;28.15;33.52;96720.50;4937920;28;21011;-33
2021/07/02 00:30:16;;;;;;;6.80;2.15;;;;;;;28.15;33.31;96712.59;4934364;28;20544;-32
2021/07/02 00:33:40;;;;;;;6.20;2.17;;;;;;;-148.56;100.00;61375.16;4938486;28;20082;-34
2021/07/02 00:36:42;;;;;;;3.22;1.90;;;;;;;28.15;33.31;96712.59;4934313;28;20169;-30
2021/07/02 00:39:08;;;;;;;3.53;2.40;;;;;;;28.15;33.48;96708.16;4935522;28;20099;-37
2021/07/02 00:41:34;;;;;;;3.40;2.30;;;;;;;28.14;33.50;96705.59;4933623;28;20442;-34
2021/07/02 00:43:59;;;;;;;2.67;2.00;;;;;;;28.12;33.25;96708.38;4938006;28;21017;-35
2021/07/02 00:46:25;;;;;;;2.60;2.13;;;;;;;28.13;33.32;96702.16;4934866;28;20039;-30
2021/07/02 00:48:50;;;;;;;5.53;2.22;;;;;;;28.13;33.38;96707.41;4932639;28;20051;-28
2021/07/02 00:51:15;;;;;;;3.97;2.17;;;;;;;28.13;33.38;96698.66;4963667;28;20038;-36
2021/07/02 00:53:42;;;;;;;4.10;2.22;;;;;;;28.12;33.38;96700.47;4935996;28;20022;-33
2021/07/02 00:56:11;;;;;;;2.10;1.90;;;;;;;28.12;33.54;96708.38;4933600;28;20027;-34
2021/07/02 00:58:36;;;;;;;3.75;2.15;;;;;;;28.12;33.49;96703.09;4935796;28;20023;-35
2021/07/02 01:01:02;;;;;;;4.82;1.80;;;;;;;28.11;33.46;96701.38;4934008;28;20039;-31
2021/07/02 01:03:28;;;;;;;3.45;2.08;;;;;;;28.12;33.60;96705.72;4966664;28;20054;-35
2021/07/02 01:05:53;;;;;;;2.63;1.90;;;;;;;28.11;33.46;96701.38;4931365;28;20635;-34
2021/07/02 01:08:19;;;;;;;6.00;2.20;;;;;;;28.11;33.73;96701.38;4951052;28;20027;-32
2021/07/02 01:10:44;;;;;;;3.20;1.90;;;;;;;28.12;33.47;96703.09;4931143;28;20475;-31
2021/07/02 01:13:10;;;;;;;3.65;2.35;;;;;;;28.11;33.50;96706.66;4936463;28;20122;-34
2021/07/02 01:15:35;;;;;;;3.58;2.10;;;;;;;28.11;33.49;96701.38;4936883;28;20836;-34
2021/07/02 01:18:07;;;;;;;5.82;2.20;;;;;;;28.12;33.56;96703.09;4932399;28;20031;-38
2021/07/02 01:20:32;;;;;;;2.50;2.10;;;;;;;28.11;33.49;96700.56;4933570;28;20505;-28
2021/07/02 01:22:57;;;;;;;4.13;2.10;;;;;;;28.11;33.49;96706.66;4938851;28;21132;-37
2021/07/02 01:25:30;;;;;;;3.30;1.80;;;;;;;28.11;33.50;96706.66;4933451;28;20034;-35
2021/07/02 01:27:56;;;;;;;4.43;2.00;;;;;;;28.11;33.49;96708.47;4948869;28;20923;-35
2021/07/02 01:30:22;;;;;;;2.70;1.80;;;;;;;28.10;33.33;96704.16;4934779;28;20073;-35
2021/07/02 01:32:47;;;;;;;2.72;2.05;;;;;;;28.10;33.53;96706.78;4935320;28;20114;-34
2021/07/02 01:35:16;;;;;;;2.67;2.33;;;;;;;28.10;33.71;96704.97;4935012;28;20800;-33
2021/07/02 01:37:42;;;;;;;2.45;2.20;;;;;;;28.09;33.55;96700.66;4933607;28;20041;-37
2021/07/02 01:40:08;;;;;;;5.18;2.35;;;;;;;28.09;33.40;96708.56;4925614;28;20034;-33
2021/07/02 01:42:33;;;;;;;3.80;1.92;;;;;;;28.09;33.41;96705.91;4929543;28;20027;-36
2021/07/02 01:44:58;;;;;;;2.85;2.00;;;;;;;28.08;33.55;96706.88;4935882;28;20129;-37
2021/07/02 01:47:24;;;;;;;2.83;2.05;;;;;;;28.09;33.55;96705.91;4934430;28;20027;-35
2021/07/02 01:49:49;;;;;;;3.08;2.20;;;;;;;28.08;33.42;96706.88;4935731;28;20054;-33
2021/07/02 01:52:15;;;;;;;2.55;2.08;;;;;;;28.09;33.46;96705.06;4933597;28;20030;-36
2021/07/02 01:54:40;;;;;;;3.03;2.10;;;;;;;28.08;33.31;96706.88;4934766;28;20572;-33
2021/07/02 01:57:08;;;;;;;5.32;2.20;;;;;;;28.08;33.52;96701.59;4932968;28;20838;-31
2021/07/02 01:59:34;;;;;;;4.97;2.10;;;;;;;28.08;33.52;96701.59;4950127;28;20031;-36
2021/07/02 02:01:59;;;;;;;3.92;2.17;;;;;;;28.07;33.43;96710.44;4931524;28;20034;-33
2021/07/02 02:04:25;;;;;;;3.10;2.03;;;;;;;28.07;33.29;96699.88;4936385;28;20549;-35
2021/07/02 02:06:51;;;;;;;4.07;2.00;;;;;;;28.07;33.33;96699.88;4934583;28;20074;-33
2021/07/02 02:09:16;;;;;;;4.88;2.00;;;;;;;28.06;33.12;96703.47;4934899;28;20035;-36
2021/07/02 02:11:42;;;;;;;3.28;2.15;;;;;;;28.07;33.53;96701.69;4931640;28;20027;-35
2021/07/02 02:14:10;;;;;;;3.53;2.00;;;;;;;28.07;33.24;96699.06;4930918;28;20054;-29
2021/07/02 02:16:37;;;;;;;3.05;2.10;;;;;;;28.06;33.32;96698.22;4930536;28;20514;-31
2021/07/02 02:19:03;;;;;;;2.63;1.83;;;;;;;28.07;33.49;96693.78;4932465;28;20116;-29
2021/07/02 02:21:28;;;;;;;3.08;1.92;;;;;;;28.07;33.46;96697.25;4933055;28;20027;-29
2021/07/02 02:23:53;;;;;;;2.10;1.90;;;;;;;28.06;33.47;96692.09;4931592;28;20033;-32
2021/07/02 02:26:19;;;;;;;3.65;2.13;;;;;;;28.06;33.32;96692.09;4931103;28;20022;-34
2021/07/02 02:28:44;;;;;;;4.45;2.20;;;;;;;28.07;33.57;96697.25;4930270;28;20038;-33
2021/07/02 02:31:10;;;;;;;7.78;2.25;;;;;;;28.05;33.26;96696.53;4930748;28;20043;-34
2021/07/02 02:33:35;;;;;;;2.40;1.77;;;;;;;28.06;33.42;96697.38;4936134;28;20023;-36
2021/07/02 02:36:01;;;;;;;2.60;2.40;;;;;;;28.04;33.46;96695.66;4930922;28;20591;-33
2021/07/02 02:38:26;;;;;;;2.97;2.00;;;;;;;28.05;33.47;96696.53;4934861;28;20023;-36
2021/07/02 02:40:52;;;;;;;2.45;1.98;;;;;;;28.04;33.21;96695.66;4930652;28;20027;-30
2021/07/02 02:43:17;;;;;;;2.53;1.70;;;;;;;28.05;33.25;96696.53;4965647;28;20043;-36
2021/07/02 02:45:42;;;;;;;5.90;2.00;;;;;;;28.03;33.54;96691.34;4932559;28;20706;-34
2021/07/02 02:48:08;;;;;;;3.28;1.98;;;;;;;28.05;33.49;96701.78;4956487;28;20035;-33
2021/07/02 02:50:33;;;;;;;7.70;2.00;;;;;;;28.04;33.34;96695.66;4933729;28;20100;-35
2021/07/02 02:52:59;;;;;;;3.63;2.00;;;;;;;28.05;33.53;96693.88;4939293;28;20031;-35
2021/07/02 02:55:24;;;;;;;4.30;2.00;;;;;;;28.04;33.39;96700.09;4939306;28;20039;-30
2021/07/02 02:57:49;;;;;;;2.00;1.80;;;;;;;28.04;33.44;96694.84;4937540;28;20083;-34
2021/07/02 03:00:15;;;;;;;2.30;2.10;;;;;;;28.05;33.43;96701.78;4937386;28;21009;-31
2021/07/02 03:02:41;;;;;;;2.53;2.00;;;;;;;28.03;33.33;96698.41;4935324;28;20558;-33
2021/07/02 03:05:06;;;;;;;2.55;1.98;;;;;;;28.03;33.27;96701.03;4933695;28;20717;-35
2021/07/02 03:07:32;;;;;;;2.63;2.10;;;;;;;28.02;33.52;96696.72;4935301;28;20026;-34
2021/07/02 03:09:57;;;;;;;2.15;1.90;;;;;;;28.03;33.40;96698.41;4937048;28;20274;-34
2021/07/02 03:12:23;;;;;;;2.35;1.83;;;;;;;28.03;33.22;96704.53;4934176;28;20034;-34
2021/07/02 03:14:52;;;;;;;3.35;1.80;;;;;;;28.03;33.46;96706.28;4938563;28;20703;-32
2021/07/02 03:18:16;;;;;;;3.35;2.22;;;;;;;-148.56;100.00;61375.16;4937832;28;20028;-34
2021/07/02 03:21:40;;;;;;;2.75;2.08;;;;;;;-148.56;100.00;61375.16;4937321;28;20015;-30
2021/07/02 03:24:06;;;;;;;3.60;2.17;;;;;;;28.04;33.29;96705.38;4936574;28;20042;-29
2021/07/02 03:26:32;;;;;;;2.22;2.03;;;;;;;28.03;33.36;96708.94;4933565;28;20426;-35
2021/07/02 03:28:57;;;;;;;2.00;1.90;;;;;;;28.02;33.39;96704.63;4938788;28;20034;-33
2021/07/02 03:31:23;;;;;;;3.10;2.13;;;;;;;28.02;33.27;96701.97;4937415;28;20690;-36
2021/07/02 03:33:48;;;;;;;4.47;2.17;;;;;;;28.01;33.30;96706.41;4938599;28;20083;-32
2021/07/02 03:36:13;;;;;;;2.35;2.00;;;;;;;28.01;33.19;96716.09;4937216;28;20043;-34
2021/07/02 03:38:39;;;;;;;2.25;1.92;;;;;;;28.01;33.12;96710.84;4940254;28;20035;-34
2021/07/02 03:41:04;;;;;;;2.88;2.17;;;;;;;28.01;33.12;96721.38;4950997;28;20023;-36
2021/07/02 03:43:29;;;;;;;3.53;2.13;;;;;;;27.97;33.59;96714.59;4938160;28;20026;-33
2021/07/02 03:45:55;;;;;;;2.30;1.80;;;;;;;28.00;33.26;96715.25;4934743;28;20922;-34
2021/07/02 03:48:20;;;;;;;2.33;2.08;;;;;;;28.00;33.25;96720.50;4940736;28;20043;-34
2021/07/02 03:50:46;;;;;;;4.65;2.10;;;;;;;28.00;33.14;96720.50;4935911;28;20148;-35
2021/07/02 03:53:11;;;;;;;3.45;2.05;;;;;;;27.97;33.10;96714.59;4933744;28;20049;-35
2021/07/02 03:55:36;;;;;;;3.15;2.22;;;;;;;28.00;33.24;96719.69;4936019;28;20031;-36
2021/07/02 03:58:03;;;;;;;6.05;2.10;;;;;;;27.99;33.21;96721.47;4935683;28;20030;-29
2021/07/02 04:00:28;;;;;;;3.25;2.10;;;;;;;27.99;33.16;96720.63;4947112;28;20043;-31
2021/07/02 04:02:53;;;;;;;3.83;1.70;;;;;;;28.00;33.10;96724.94;4938125;28;20061;-33
2021/07/02 04:05:19;;;;;;;2.42;2.00;;;;;;;27.98;33.12;96721.56;4934877;28;20050;-34
2021/07/02 04:07:44;;;;;;;2.10;1.90;;;;;;;27.99;33.15;96728.53;4955593;28;20026;-34
2021/07/02 04:10:10;;;;;;;2.70;2.00;;;;;;;27.98;33.31;96721.56;4933653;28;20031;-35
2021/07/02 04:12:35;;;;;;;4.45;2.30;;;;;;;27.98;33.33;96726.81;4936871;28;22055;-32
2021/07/02 04:15:01;;;;;;;2.45;1.88;;;;;;;27.98;33.25;96721.56;4936482;28;20027;-36
2021/07/02 04:17:26;;;;;;;2.40;1.83;;;;;;;27.97;33.22;96731.25;4936430;28;20406;-34
2021/07/02 04:19:51;;;;;;;5.32;2.00;;;;;;;27.97;33.13;96730.41;4951052;28;20050;-29
2021/07/02 04:22:17;;;;;;;2.67;2.05;;;;;;;27.96;33.54;96728.72;4934754;28;20042;-31
2021/07/02 04:24:42;;;;;;;3.72;2.10;;;;;;;27.97;33.20;96727.78;4936292;28;20039;-33
2021/07/02 04:27:08;;;;;;;2.47;2.10;;;;;;;27.96;33.38;96723.44;4949417;28;20717;-29
2021/07/02 04:29:33;;;;;;;3.25;1.90;;;;;;;27.96;33.22;96723.44;4938076;28;20573;-34
2021/07/02 04:31:58;;;;;;;4.13;2.08;;;;;;;27.95;33.47;96729.66;4935497;28;21008;-33
2021/07/02 04:34:24;;;;;;;2.35;1.85;;;;;;;27.95;33.34;96727.84;4935022;28;20031;-29
2021/07/02 04:36:49;;;;;;;3.50;2.20;;;;;;;27.94;33.22;96723.53;4931502;28;20093;-35
2021/07/02 04:39:15;;;;;;;4.68;2.33;;;;;;;27.94;33.24;96727.94;4935843;28;20102;-36
2021/07/02 04:41:40;;;;;;;6.05;2.33;;;;;;;27.91;33.34;96737.75;4938129;28;20031;-31
2021/07/02 04:44:06;;;;;;;3.97;1.90;;;;;;;27.90;33.35;96740.47;4924431;28;20043;-31
2021/07/02 04:46:32;;;;;;;3.70;2.10;;;;;;;27.90;33.48;96741.34;4933486;28;20031;-33
2021/07/02 04:48:57;;;;;;;3.38;2.25;;;;;;;27.89;33.17;96742.25;4935917;28;20030;-37
2021/07/02 04:51:22;;;;;;;6.07;2.25;;;;;;;27.89;33.35;96741.44;4932071;28;20031;-28
2021/07/02 04:53:48;;;;;;;2.75;2.00;;;;;;;27.88;33.32;96742.38;4936566;28;20046;-33
2021/07/02 04:56:14;;;;;;;2.55;2.00;;;;;;;27.85;33.56;96732.03;4933478;28;20034;-31
2021/07/02 04:59:42;;;;;;;3.13;2.08;;;;;;;-148.56;100.00;61375.16;4940010;28;20027;-35
2021/07/02 05:03:06;;;;;;;5.88;2.10;;;;;;;-148.56;100.00;61375.16;4930701;28;20159;-29
2021/07/02 05:06:00;;;;;;;2.25;1.70;;;;;;;27.85;33.56;96732.03;4931510;28;20501;-32
2021/07/02 05:08:26;;;;;;;3.75;2.38;;;;;;;27.92;33.26;96747.34;4934576;28;20348;-35
2021/07/02 05:10:51;;;;;;;5.38;2.05;;;;;;;27.92;33.30;96749.97;4933794;28;20057;-36
2021/07/02 05:13:16;;;;;;;2.40;1.98;;;;;;;27.92;33.25;96747.34;4934345;28;20256;-34
2021/07/02 05:15:42;;;;;;;3.05;2.50;;;;;;;27.92;33.21;96744.69;4937081;28;20027;-34
2021/07/02 05:18:07;;;;;;;4.22;2.20;;;;;;;27.90;33.39;96743.97;4933670;28;20512;-33
2021/07/02 05:20:33;;;;;;;3.10;2.20;;;;;;;27.90;33.39;96749.25;4933619;28;20536;-36
2021/07/02 05:22:58;;;;;;;3.47;2.10;;;;;;;27.89;33.45;96744.88;4932376;28;20031;-34
2021/07/02 05:25:23;;;;;;;3.47;2.22;;;;;;;27.89;33.25;96744.88;4934305;28;20037;-35
2021/07/02 05:27:49;;;;;;;4.05;2.42;;;;;;;27.90;33.50;96756.28;4935193;28;20031;-34
2021/07/02 05:30:15;;;;;;;5.18;2.10;;;;;;;27.90;33.34;96757.13;4928620;28;20600;-32
2021/07/02 05:32:40;;;;;;;4.30;2.50;;;;;;;27.91;33.42;96757.97;4928203;28;20573;-32
2021/07/02 05:35:07;;;;;;;4.13;2.20;;;;;;;27.90;33.47;96753.66;4935703;28;20256;-33
2021/07/02 05:37:32;;;;;;;5.60;1.98;;;;;;;27.87;33.50;96752.06;4931631;28;20026;-33
2021/07/02 05:39:58;;;;;;;5.22;2.28;;;;;;;27.91;33.58;96758.81;4930987;28;20415;-35
2021/07/02 05:42:24;;;;;;;3.28;2.20;;;;;;;27.91;33.63;96764.09;4935403;28;20708;-35
2021/07/02 05:44:50;;;;;;;4.18;2.00;;;;;;;27.91;33.67;96758.81;4932502;28;21180;-33
2021/07/02 05:47:16;;;;;;;3.33;2.00;;;;;;;27.92;33.45;96760.50;4935016;28;20095;-33
2021/07/02 05:49:41;;;;;;;3.75;2.05;;;;;;;27.92;33.60;96749.97;4936497;28;20042;-36
2021/07/02 05:52:07;;;;;;;6.68;2.20;;;;;;;27.94;33.45;96756.94;4931464;28;20019;-39
2021/07/02 05:54:32;;;;;;;3.25;2.20;;;;;;;27.95;33.43;96748.09;4933959;28;20035;-33
2021/07/02 05:56:58;;;;;;;2.20;1.77;;;;;;;27.94;33.76;96746.38;4933685;28;20031;-36
2021/07/02 05:59:23;;;;;;;2.83;2.17;;;;;;;27.95;33.60;96753.38;4936593;28;20035;-36
2021/07/02 06:01:48;;;;;;;2.80;2.33;;;;;;;27.90;33.69;96746.59;4948573;28;20731;-34
2021/07/02 06:04:14;;;;;;;4.53;2.30;;;;;;;27.95;33.57;96754.19;4932104;28;20030;-34
2021/07/02 06:06:40;;;;;;;6.18;2.00;;;;;;;27.96;33.75;96758.50;4928288;28;20209;-29
2021/07/02 06:09:05;;;;;;;2.75;2.20;;;;;;;27.98;33.77;96747.88;4932406;28;20024;-33
2021/07/02 06:11:30;;;;;;;2.70;2.17;;;;;;;27.98;33.85;96758.44;4932346;28;20031;-34
2021/07/02 06:13:56;;;;;;;3.83;2.30;;;;;;;28.00;33.96;96761.81;4936432;28;20023;-37
2021/07/02 06:16:21;;;;;;;4.32;2.60;;;;;;;27.99;34.05;96754.88;4930197;28;20741;-34
2021/07/02 06:18:47;;;;;;;5.65;2.60;;;;;;;27.99;33.94;96760.97;4927899;28;20034;-31
2021/07/02 06:21:12;;;;;;;4.32;2.42;;;;;;;28.00;34.13;96759.19;4939707;28;20023;-33
2021/07/02 06:23:38;;;;;;;3.97;2.33;;;;;;;28.00;33.97;96762.66;4939105;28;20034;-34
2021/07/02 06:26:05;;;;;;;4.97;2.00;;;;;;;28.01;34.21;96760.88;4927737;28;20023;-30
2021/07/02 06:28:31;;;;;;;10.98;2.20;;;;;;;28.01;34.01;96763.50;4929956;28;20026;-31
2021/07/02 06:30:56;;;;;;;16.17;2.55;;;;;;;28.00;34.07;96767.91;4928579;28;20039;-36
2021/07/02 06:33:23;;;;;;;7.13;2.78;;;;;;;28.01;33.97;96766.16;4939036;28;20197;-34
2021/07/02 06:35:48;;;;;;;8.20;2.75;;;;;;;28.01;34.01;96777.53;4935486;28;20698;-36
2021/07/02 06:38:22;;;;;;;5.28;2.45;;;;;;;28.02;33.96;96775.72;4935194;28;20027;-31
2021/07/02 06:40:47;;;;;;;5.93;2.45;;;;;;;28.02;34.02;96779.22;4933399;28;20038;-34
2021/07/02 06:43:13;;;;;;;7.70;3.10;;;;;;;28.01;33.83;96790.72;4931726;28;20035;-38
2021/07/02 06:45:38;;;;;;;17.50;3.75;;;;;;;28.01;33.49;96784.59;4945608;28;20272;-30
2021/07/02 06:48:05;;;;;;;8.75;3.95;;;;;;;27.97;33.43;96789.22;4935640;28;20038;-34
2021/07/02 06:50:38;;;;;;;4.65;3.80;;;;;;;27.95;32.49;96792.88;4933889;28;20533;-35
2021/07/02 06:53:04;;;;;;;6.38;3.90;;;;;;;27.86;32.49;96786.38;4935818;28;20137;-33
2021/07/02 06:55:30;;;;;;;7.25;3.58;;;;;;;27.87;32.32;96788.91;4932333;28;20926;-35
2021/07/02 06:57:55;;;;;;;5.00;3.75;;;;;;;27.83;32.22;96786.56;4933725;28;20311;-33
2021/07/02 07:00:22;;;;;;;6.47;3.70;;;;;;;27.78;32.23;96792.97;4934712;28;20117;-36
2021/07/02 07:02:47;;;;;;;6.93;3.70;;;;;;;27.74;32.08;96793.25;4927529;28;20070;-37
2021/07/02 07:05:13;;;;;;;5.50;3.67;;;;;;;27.71;31.85;96791.66;4970904;28;20050;-35
2021/07/02 07:07:39;;;;;;;4.30;3.88;;;;;;;27.61;31.96;96778.19;4946404;28;20563;-33
2021/07/02 07:10:05;;;;;;;7.55;3.97;;;;;;;27.62;31.98;96785.16;4933738;28;20035;-36
2021/07/02 07:12:30;;;;;;;4.50;3.97;;;;;;;27.60;31.96;96787.00;4932212;28;20035;-34
2021/07/02 07:14:56;;;;;;;6.38;3.60;;;;;;;27.58;31.94;96783.59;4932803;28;20216;-34
2021/07/02 07:17:21;;;;;;;5.57;3.40;;;;;;;27.56;31.85;96785.50;4964204;28;20069;-30
2021/07/02 07:19:47;;;;;;;5.72;3.72;;;;;;;27.55;31.99;96794.34;4934798;28;20039;-36
2021/07/02 07:22:13;;;;;;;4.72;3.65;;;;;;;27.52;31.99;96789.25;4932014;28;20819;-35
2021/07/02 07:24:38;;;;;;;8.82;3.78;;;;;;;27.51;31.93;96796.28;4934312;28;20041;-33
2021/07/02 07:27:04;;;;;;;4.55;3.38;;;;;;;27.50;31.67;96796.41;4932316;28;20569;-31
2021/07/02 07:29:29;;;;;;;5.60;3.50;;;;;;;27.49;31.28;96799.97;4935202;28;20065;-37
2021/07/02 07:31:55;;;;;;;4.80;3.50;;;;;;;27.47;31.24;96801.84;4930921;28;20283;-28
2021/07/02 07:35:06;;;;;;;4.35;3.33;;;;;;;27.46;31.06;96802.81;4931967;28;20886;-35
2021/07/02 07:37:12;;;;;;;6.30;4.03;;;;;;;27.44;31.10;96796.75;4942827;28;20141;-34
2021/07/02 07:39:38;;;;;;;4.57;3.63;;;;;;;27.42;30.88;96806.56;4933832;28;20035;-32
2021/07/02 07:42:04;;;;;;;7.88;3.78;;;;;;;27.39;30.91;96797.06;4933623;28;20031;-34
2021/07/02 07:44:29;;;;;;;6.53;4.05;;;;;;;27.36;30.79;96798.09;4933114;28;20891;-34
2021/07/02 07:46:55;;;;;;;8.30;3.70;;;;;;;27.34;30.70;96807.84;4949962;28;20034;-35
2021/07/02 07:49:21;;;;;;;8.48;3.72;;;;;;;27.31;30.60;96802.75;4935919;28;20121;-34
2021/07/02 07:54:21;;;;;;;5.22;3.67;;;;;;;27.27;30.50;96811.78;4944000;28;20356;-35
2021/07/02 07:56:50;;;;;;;7.38;3.70;;;;;;;27.26;30.46;96810.06;4931826;28;20031;-34
2021/07/02 07:59:19;;;;;;;4.32;3.72;;;;;;;27.24;30.31;96809.34;4934818;28;20035;-32
2021/07/02 08:01:45;;;;;;;6.03;3.50;;;;;;;27.24;30.69;96806.69;4928219;28;20043;-33
2021/07/02 08:04:13;;;;;;;4.13;3.42;;;;;;;27.24;30.67;96818.06;4931641;28;20022;-30
2021/07/02 08:06:38;;;;;;;9.13;4.18;;;;;;;27.23;30.64;96811.09;4931866;28;20035;-33
2021/07/02 08:09:04;;;;;;;6.43;3.50;;;;;;;27.23;30.63;96820.81;4946152;28;20439;-33
2021/07/02 08:11:29;;;;;;;5.78;3.72;;;;;;;27.22;30.49;96821.72;4931969;28;20027;-30
2021/07/02 08:13:55;;;;;;;6.72;3.90;;;;;;;27.21;30.28;96812.13;4932140;28;20026;-35
2021/07/02 08:16:20;;;;;;;5.03;3.50;;;;;;;27.20;30.08;96820.97;4932572;28;20469;-35
2021/07/02 08:18:45;;;;;;;4.97;3.80;;;;;;;27.18;29.73;96815.78;4931125;28;20043;-32
2021/07/02 08:21:11;;;;;;;4.28;3.45;;;;;;;27.18;29.88;96820.19;4932823;28;20026;-33
2021/07/02 08:23:36;;;;;;;5.32;3.75;;;;;;;27.17;29.91;96810.63;4932836;28;20926;-34
2021/07/02 08:26:02;;;;;;;4.80;3.83;;;;;;;27.17;29.87;96815.88;4935946;28;20035;-31
2021/07/02 08:31:11;;;;;;;14.10;4.10;;;;;;;27.16;29.70;96820.31;4934570;28;20057;-31
2021/07/02 08:33:36;;;;;;;9.63;3.80;;;;;;;27.13;29.21;96810.81;4935115;28;20316;-29
2021/07/02 08:36:01;;;;;;;5.85;3.70;;;;;;;27.07;28.87;96824.31;4934396;28;20082;-29
2021/07/02 08:38:27;;;;;;;9.45;3.85;;;;;;;26.98;28.62;96817.81;4932909;28;20560;-32
2021/07/02 08:40:53;;;;;;;5.43;3.50;;;;;;;26.92;28.56;96820.75;4934260;28;20229;-33
2021/07/02 08:43:18;;;;;;;8.15;3.85;;;;;;;26.86;28.60;96821.94;4928611;28;20541;-33
2021/07/02 08:45:44;;;;;;;10.73;4.20;;;;;;;26.81;28.90;96816.09;4932846;28;20027;-30
2021/07/02 08:48:09;;;;;;;7.63;3.60;;;;;;;26.78;29.01;96816.28;4964955;28;20066;-34
2021/07/02 08:50:35;;;;;;;10.10;3.80;;;;;;;26.80;29.18;96817.03;4963133;28;20026;-29
2021/07/02 08:53:02;;;;;;;7.53;3.90;;;;;;;26.80;29.62;96808.28;4946501;28;20023;-31
2021/07/02 08:55:27;;;;;;;8.82;3.80;;;;;;;26.87;29.68;96815.78;4927801;28;20040;-33
2021/07/02 08:57:53;;;;;;;4.57;3.55;;;;;;;26.91;29.87;96821.69;4931427;28;20026;-30
2021/07/02 09:00:19;;;;;;;5.40;3.60;;;;;;;26.95;29.87;96822.38;4929647;28;20347;-31
2021/07/02 09:02:44;;;;;;;5.20;3.65;;;;;;;26.99;30.05;96822.13;4930171;28;20022;-31
2021/07/02 09:05:26;;;;;;;3.92;3.40;;;;;;;27.03;30.18;96819.34;4930782;28;20602;-35
2021/07/02 09:07:52;;;;;;;5.25;3.60;;;;;;;27.08;30.33;96812.03;4932987;28;20031;-35
2021/07/02 09:10:17;;;;;;;8.25;3.60;;;;;;;27.13;30.17;96816.09;4930035;28;20038;-30
2021/07/02 09:12:52;;;;;;;7.72;3.20;;;;;;;27.16;30.18;96814.19;4929010;28;20042;-34
2021/07/02 09:15:17;;;;;;;6.97;3.38;;;;;;;27.20;30.02;96821.84;4931629;28;20302;-34
2021/07/02 09:17:45;;;;;;;6.30;3.50;;;;;;;27.23;30.27;96820.81;4931504;28;20771;-32
2021/07/02 09:20:11;;;;;;;16.00;4.88;;;;;;;27.26;30.10;96826.72;4933782;28;20042;-34
2021/07/02 09:22:44;;;;;;;12.40;4.20;;;;;;;27.30;30.26;96819.47;4937066;28;20420;-35
2021/07/02 09:25:25;;;;;;;5.95;3.90;;;;;;;27.34;30.41;96823.63;4933983;28;20060;-36
2021/07/02 09:27:51;;;;;;;8.40;4.10;;;;;;;27.36;30.43;96816.50;4938768;28;20333;-31
2021/07/02 09:30:21;;;;;;;9.50;4.97;;;;;;;27.39;30.44;96821.56;4949920;28;20041;-35
2021/07/02 09:32:48;;;;;;;16.20;5.40;;;;;;;27.43;30.55;96821.41;4950204;28;20029;-35
2021/07/02 09:35:15;;;;;;;16.88;5.22;;;;;;;27.44;30.50;96823.06;4935843;28;20031;-31
2021/07/02 09:37:42;;;;;;;15.98;5.78;;;;;;;27.47;30.61;96822.91;4937828;28;20567;-32
2021/07/02 09:40:09;;;;;;;21.88;5.30;;;;;;;27.50;30.70;96820.09;4935922;28;20038;-34
2021/07/02 09:42:35;;;;;;;13.45;5.18;;;;;;;27.51;30.70;96825.25;4935683;28;20030;-33
2021/07/02 09:45:05;;;;;;;15.48;5.53;;;;;;;27.55;30.63;96833.81;4936029;28;20031;-34
2021/07/02 09:47:31;;;;;;;14.65;5.80;;;;;;;27.56;30.74;96830.25;4937011;28;20039;-37
2021/07/02 09:50:21;;;;;;;15.40;5.18;;;;;;;27.58;30.80;96824.91;4937198;28;20789;-33
2021/07/02 09:52:51;;;;;;;15.45;5.30;;;;;;;27.60;30.83;96823.00;4937500;28;20306;-31
2021/07/02 09:55:18;;;;;;;13.00;5.32;;;;;;;27.61;31.08;96830.84;4936015;28;20105;-35
2021/07/02 09:57:43;;;;;;;13.45;5.15;;;;;;;27.63;30.98;96834.25;4937619;28;20037;-32
2021/07/02 10:00:10;;;;;;;11.10;4.82;;;;;;;27.65;31.07;96835.00;4938078;28;20023;-34
2021/07/02 10:02:36;;;;;;;10.63;4.65;;;;;;;27.62;31.13;96827.28;4932984;28;20051;-35
2021/07/02 10:05:02;;;;;;;13.45;5.18;;;;;;;27.68;30.94;96830.50;4951419;28;20593;-34
2021/07/02 10:07:28;;;;;;;9.40;4.63;;;;;;;27.70;31.02;96824.19;4949827;28;20025;-35
2021/07/02 10:09:53;;;;;;;8.15;4.35;;;;;;;27.71;31.30;96835.56;4935080;28;20137;-34
2021/07/02 10:12:20;;;;;;;10.85;4.75;;;;;;;27.72;31.21;96826.75;4934493;28;20093;-33
2021/07/02 10:14:49;;;;;;;11.70;4.80;;;;;;;27.73;31.22;96831.88;4937545;28;20117;-29
2021/07/02 10:17:17;;;;;;;8.43;4.47;;;;;;;27.75;31.42;96830.03;4953545;28;20031;-33
2021/07/02 10:19:42;;;;;;;7.55;3.80;;;;;;;27.72;31.30;96816.22;4932409;28;20701;-33
2021/07/02 10:22:09;;;;;;;11.93;4.88;;;;;;;27.78;31.56;96826.34;4934342;28;20054;-33
2021/07/02 10:24:34;;;;;;;12.50;4.35;;;;;;;27.78;31.21;96826.34;4940012;28;20155;-26
2021/07/02 10:27:00;;;;;;;7.28;3.70;;;;;;;27.81;31.56;96834.06;4941141;28;20728;-34
2021/07/02 10:29:25;;;;;;;7.60;3.83;;;;;;;27.82;31.59;96832.28;4924231;28;20036;-34
2021/07/02 10:31:50;;;;;;;7.32;4.13;;;;;;;27.84;31.14;96830.41;4938278;28;20035;-34
2021/07/02 10:34:16;;;;;;;8.65;4.18;;;;;;;27.86;31.15;96834.63;4929789;28;20121;-28
2021/07/02 10:36:41;;;;;;;8.65;3.70;;;;;;;27.86;29.71;96828.50;4944787;28;20031;-33
2021/07/02 10:39:31;;;;;;;4.78;3.72;;;;;;;27.83;28.86;96829.56;4944804;28;20030;-33
2021/07/02 10:42:06;;;;;;;5.85;3.47;;;;;;;27.81;28.43;96820.91;4932356;28;20674;-36
2021/07/02 10:44:32;;;;;;;7.47;3.97;;;;;;;27.80;28.32;96829.72;4932307;28;20034;-36
2021/07/02 10:46:57;;;;;;;5.43;3.72;;;;;;;27.75;27.74;96826.53;4930613;28;20027;-32
2021/07/02 10:49:32;;;;;;;7.68;3.50;;;;;;;27.74;27.67;96828.34;4945175;28;20533;-33
2021/07/02 10:51:59;;;;;;;9.30;3.60;;;;;;;27.74;27.68;96835.38;4960367;28;20039;-33
2021/07/02 10:54:29;;;;;;;6.95;3.70;;;;;;;27.73;28.37;96829.25;4927629;28;20093;-33
2021/07/02 10:56:56;;;;;;;10.23;3.58;;;;;;;27.74;28.78;96827.47;4929951;28;20061;-32
2021/07/02 10:59:21;;;;;;;6.80;3.67;;;;;;;27.74;29.20;96836.25;4932119;28;20118;-33
2021/07/02 11:02:13;;;;;;;6.95;3.75;;;;;;;27.76;29.57;96833.47;4935392;28;20031;-31
2021/07/02 11:04:55;;;;;;;15.85;3.78;;;;;;;27.78;29.73;96834.25;4937372;28;20047;-29
2021/07/02 11:07:25;;;;;;;6.15;3.75;;;;;;;27.78;29.85;96821.94;4937739;28;20686;-34
2021/07/02 11:09:50;;;;;;;5.85;3.67;;;;;;;27.81;30.14;96830.59;4942205;28;20031;-33
2021/07/02 11:12:25;;;;;;;7.13;3.67;;;;;;;27.82;30.28;96827.88;4938523;28;20026;-34
2021/07/02 11:15:10;;;;;;;5.35;3.58;;;;;;;27.84;30.26;96831.22;4971908;28;20031;-33
2021/07/02 11:17:52;;;;;;;7.10;3.60;;;;;;;27.85;30.46;96827.69;4938604;28;20027;-34
2021/07/02 11:20:18;;;;;;;8.40;3.70;;;;;;;27.86;30.48;96839.03;4940266;28;20023;-30
2021/07/02 11:22:58;;;;;;;4.80;3.53;;;;;;;27.87;30.56;96835.47;4940789;28;20023;-35
2021/07/02 11:25:37;;;;;;;6.82;3.30;;;;;;;27.87;30.55;96828.44;4939968;28;20031;-31
2021/07/02 11:28:07;;;;;;;4.40;3.42;;;;;;;27.88;30.70;96832.75;4937920;28;20129;-33
2021/07/02 11:30:35;;;;;;;4.90;3.10;;;;;;;27.90;30.72;96828.25;4937422;28;20208;-33
2021/07/02 11:33:01;;;;;;;5.65;3.30;;;;;;;27.91;30.93;96826.44;4937090;28;20029;-33
2021/07/02 11:35:28;;;;;;;4.85;3.45;;;;;;;27.91;30.78;96821.16;4939206;28;20031;-34
2021/07/02 11:38:02;;;;;;;5.68;3.30;;;;;;;27.94;30.76;96830.66;4939679;28;20263;-34
2021/07/02 11:40:46;;;;;;;4.47;2.88;;;;;;;27.94;31.08;96833.31;4939311;28;20244;-31